createdAt,value
2023-05-22T00:00:46.596Z,14.13
2023-05-22T00:03:15.103Z,18.08
2023-05-22T00:05:45.358Z,22.05
2023-05-22T00:08:17.838Z,20.38
2023-05-22T00:10:47.677Z,18.15
2023-05-22T00:13:19.549Z,21.27
2023-05-22T00:15:48.207Z,18.70
2023-05-22T00:18:19.457Z,17.05
2023-05-22T00:20:50.352Z,17.10
2023-05-22T00:23:23.194Z,19.75
2023-05-22T00:25:52.724Z,18.40
2023-05-22T00:28:23.307Z,19.30
2023-05-22T00:30:53.736Z,16.80
2023-05-22T00:33:23.227Z,18.38
2023-05-22T00:35:53.988Z,18.60
2023-05-22T00:38:33.293Z,17.73
2023-05-22T00:41:02.650Z,16.67
2023-05-22T00:43:33.297Z,19.17
2023-05-22T00:46:04.491Z,18.40
2023-05-22T00:48:32.721Z,17.58
2023-05-22T00:51:02.216Z,16.65
2023-05-22T00:53:33.451Z,16.05
2023-05-22T00:56:02.237Z,17.92
2023-05-22T00:58:31.509Z,19.15
2023-05-22T01:01:01.190Z,16.70
2023-05-22T01:03:32.438Z,16.23
2023-05-22T01:06:02.446Z,16.65
2023-05-22T01:08:33.566Z,18.42
2023-05-22T01:11:10.374Z,16.70
2023-05-22T01:13:49.479Z,17.27
2023-05-22T01:16:29.942Z,15.80
2023-05-22T01:19:16.191Z,17.80
2023-05-22T01:25:01.750Z,17.45
2023-05-22T01:28:02.246Z,18.02
2023-05-22T01:30:58.236Z,19.00
2023-05-22T01:33:33.122Z,16.92
2023-05-22T01:36:08.418Z,17.58
2023-05-22T01:38:40.001Z,16.50
2023-05-22T01:41:08.496Z,16.95
2023-05-22T01:43:39.118Z,16.23
2023-05-22T01:46:11.524Z,17.63
2023-05-22T01:48:40.114Z,19.85
2023-05-22T01:51:16.385Z,20.25
2023-05-22T01:53:57.144Z,20.77
2023-05-22T01:56:34.844Z,17.30
2023-05-22T01:59:11.653Z,18.92
2023-05-22T02:01:42.773Z,20.23
2023-05-22T02:04:16.879Z,17.60
2023-05-22T02:06:47.506Z,18.20
2023-05-22T02:09:19.974Z,18.75
2023-05-22T02:11:49.267Z,19.67
2023-05-22T02:14:20.564Z,16.73
2023-05-22T02:16:51.859Z,20.08
2023-05-22T02:19:21.667Z,17.42
2023-05-22T02:21:52.653Z,18.83
2023-05-22T02:24:24.984Z,16.88
2023-05-22T02:26:55.800Z,17.05
2023-05-22T02:29:25.676Z,17.48
2023-05-22T02:31:56.907Z,16.95
2023-05-22T02:34:28.628Z,20.65
2023-05-22T02:36:57.633Z,19.15
2023-05-22T02:39:28.464Z,20.35
2023-05-22T02:41:58.660Z,17.63
2023-05-22T02:44:28.543Z,18.63
2023-05-22T02:46:59.972Z,17.70
2023-05-22T02:49:28.325Z,22.98
2023-05-22T02:51:59.059Z,15.23
2023-05-22T02:54:27.795Z,17.45
2023-05-22T02:56:57.627Z,17.08
2023-05-22T02:59:26.210Z,17.27
2023-05-22T03:01:55.346Z,19.30
2023-05-22T03:04:26.516Z,17.13
2023-05-22T03:06:57.805Z,15.98
2023-05-22T03:09:28.962Z,17.65
2023-05-22T03:12:00.933Z,16.75
2023-05-22T03:14:33.590Z,15.57
2023-05-22T03:17:03.766Z,18.60
2023-05-22T03:19:34.702Z,20.35
2023-05-22T03:22:03.957Z,17.25
2023-05-22T03:24:33.721Z,19.17
2023-05-22T03:27:03.334Z,18.15
2023-05-22T03:29:38.365Z,17.75
2023-05-22T03:32:07.692Z,23.38
2023-05-22T03:34:37.829Z,18.95
2023-05-22T03:37:10.161Z,15.35
2023-05-22T03:39:39.675Z,16.65
2023-05-22T03:42:20.427Z,17.80
2023-05-22T03:44:50.839Z,16.20
2023-05-22T03:47:21.750Z,17.60
2023-05-22T03:49:51.461Z,15.45
2023-05-22T03:52:20.904Z,17.15
2023-05-22T03:54:50.872Z,15.85
2023-05-22T03:57:20.935Z,17.50
2023-05-22T03:59:51.027Z,15.15
2023-05-22T04:02:21.604Z,16.10
2023-05-22T04:04:51.395Z,15.45
2023-05-22T04:07:22.108Z,21.60
2023-05-22T04:09:50.494Z,15.90
2023-05-22T04:12:20.361Z,17.92
2023-05-22T04:14:51.138Z,16.92
2023-05-22T04:17:20.650Z,16.65
2023-05-22T04:19:53.001Z,17.38
2023-05-22T04:22:21.239Z,15.93
2023-05-22T04:24:50.204Z,17.48
2023-05-22T04:27:22.089Z,19.38
2023-05-22T04:29:51.742Z,16.65
2023-05-22T04:32:24.048Z,17.13
2023-05-22T04:34:55.181Z,15.13
2023-05-22T04:37:26.484Z,16.58
2023-05-22T04:39:59.490Z,19.90
2023-05-22T04:42:28.289Z,14.35
2023-05-22T04:44:59.377Z,15.60
2023-05-22T04:47:28.931Z,16.60
2023-05-22T04:50:01.379Z,14.98
2023-05-22T04:52:31.375Z,14.32
2023-05-22T04:55:04.530Z,20.67
2023-05-22T04:57:35.599Z,18.67
2023-05-22T05:00:09.333Z,17.08
2023-05-22T05:02:40.850Z,15.10
2023-05-22T05:05:12.098Z,15.27
2023-05-22T05:07:43.270Z,16.95
2023-05-22T05:10:12.932Z,13.90
2023-05-22T05:12:45.024Z,14.07
2023-05-22T05:15:13.755Z,14.43
2023-05-22T05:17:42.417Z,14.15
2023-05-22T05:20:15.360Z,14.65
2023-05-22T05:22:46.621Z,12.75
2023-05-22T05:25:17.988Z,13.25
2023-05-22T05:27:47.095Z,13.18
2023-05-22T05:30:20.206Z,13.25
2023-05-22T05:33:19.813Z,13.32
2023-05-22T05:36:04.247Z,13.18
2023-05-22T05:38:34.284Z,15.90
2023-05-22T05:41:02.898Z,12.48
2023-05-22T05:43:32.748Z,14.02
2023-05-22T05:46:07.406Z,13.90
2023-05-22T05:48:38.125Z,16.05
2023-05-22T05:51:08.672Z,13.35
2023-05-22T05:53:43.002Z,14.38
2023-05-22T05:56:13.018Z,15.02
2023-05-22T05:58:43.947Z,13.52
2023-05-22T06:01:50.799Z,11.60
2023-05-22T06:04:28.383Z,12.95
2023-05-22T06:06:59.208Z,13.20
2023-05-22T06:09:37.497Z,13.07
2023-05-22T06:12:19.632Z,12.65
2023-05-22T06:14:48.188Z,13.77
2023-05-22T06:17:18.243Z,11.70
2023-05-22T06:19:47.844Z,12.45
2023-05-22T06:22:22.081Z,12.35
2023-05-22T06:24:52.773Z,12.05
2023-05-22T06:27:26.214Z,14.35
2023-05-22T06:29:56.619Z,14.18
2023-05-22T06:32:30.594Z,12.07
2023-05-22T06:35:00.063Z,15.95
2023-05-22T06:37:33.258Z,11.35
2023-05-22T06:40:04.994Z,11.90
2023-05-22T06:42:41.600Z,13.82
2023-05-22T06:45:23.873Z,12.85
2023-05-22T06:48:13.388Z,13.93
2023-05-22T06:50:58.522Z,13.18
2023-05-22T06:53:29.835Z,12.68
2023-05-22T06:55:59.716Z,14.13
2023-05-22T06:58:41.496Z,16.55
2023-05-22T07:01:12.298Z,13.88
2023-05-22T07:03:48.722Z,15.18
2023-05-22T07:06:48.625Z,11.75
2023-05-22T07:09:22.788Z,12.90
2023-05-22T07:11:51.545Z,13.82
2023-05-22T07:14:24.060Z,13.70
2023-05-22T07:16:52.762Z,11.68
2023-05-22T07:19:27.509Z,11.45
2023-05-22T07:22:01.563Z,12.40
2023-05-22T07:24:34.196Z,13.90
2023-05-22T07:27:04.576Z,13.50
2023-05-22T07:29:35.293Z,13.40
2023-05-22T07:32:06.858Z,11.75
2023-05-22T07:34:37.797Z,10.88
2023-05-22T07:37:12.341Z,11.18
2023-05-22T07:39:42.724Z,14.52
2023-05-22T07:42:14.677Z,15.55
2023-05-22T07:44:55.205Z,14.13
2023-05-22T07:47:24.049Z,14.27
2023-05-22T07:49:55.066Z,11.80
2023-05-22T07:52:25.188Z,12.70
2023-05-22T07:54:56.955Z,15.10
2023-05-22T07:57:26.766Z,11.23
2023-05-22T07:59:57.015Z,12.15
2023-05-22T08:02:25.635Z,15.18
2023-05-22T08:04:55.667Z,10.95
2023-05-22T08:07:25.467Z,12.77
2023-05-22T08:09:56.490Z,13.93
2023-05-22T08:12:24.932Z,14.18
2023-05-22T08:14:55.781Z,11.60
2023-05-22T08:17:25.943Z,11.95
2023-05-22T08:19:55.028Z,10.57
2023-05-22T08:22:24.639Z,13.50
2023-05-22T08:24:55.871Z,11.07
2023-05-22T08:27:26.699Z,12.75
2023-05-22T08:29:56.592Z,9.75
2023-05-22T08:32:29.251Z,10.85
2023-05-22T08:37:30.284Z,11.98
2023-05-22T08:40:01.705Z,12.57
2023-05-22T08:42:31.422Z,12.13
2023-05-22T08:45:01.142Z,12.40
2023-05-22T08:47:33.016Z,10.68
2023-05-22T08:50:03.543Z,10.77
2023-05-22T08:52:40.277Z,10.63
2023-05-22T08:55:12.085Z,10.73
2023-05-22T08:57:42.175Z,11.07
2023-05-22T09:00:14.872Z,10.15
2023-05-22T09:02:44.702Z,10.73
2023-05-22T09:05:15.171Z,11.95
2023-05-22T09:07:45.766Z,10.32
2023-05-22T09:10:16.849Z,13.50
2023-05-22T09:13:03.810Z,11.70
2023-05-22T09:15:33.641Z,9.93
2023-05-22T09:18:05.606Z,11.10
2023-05-22T09:20:37.900Z,10.05
2023-05-22T09:23:15.692Z,11.43
2023-05-22T09:25:46.682Z,10.27
2023-05-22T09:28:19.970Z,11.50
2023-05-22T09:33:20.776Z,12.15
2023-05-22T09:35:49.854Z,11.60
2023-05-22T09:38:21.061Z,11.10
2023-05-22T09:40:55.617Z,10.05
2023-05-22T09:43:26.719Z,10.65
2023-05-22T09:45:59.357Z,13.55
2023-05-22T09:48:28.123Z,10.77
2023-05-22T09:51:01.089Z,12.75
2023-05-22T09:53:33.879Z,15.07
2023-05-22T09:56:10.833Z,11.52
2023-05-22T09:58:44.511Z,11.50
2023-05-22T10:01:19.708Z,11.95
2023-05-22T10:03:55.680Z,12.40
2023-05-22T10:06:28.326Z,10.57
2023-05-22T10:09:05.164Z,12.65
2023-05-22T10:11:38.372Z,9.85
2023-05-22T10:14:08.212Z,10.98
2023-05-22T10:16:38.472Z,13.23
2023-05-22T10:19:10.638Z,10.65
2023-05-22T10:21:42.368Z,12.70
2023-05-22T10:24:14.569Z,14.90
2023-05-22T10:26:46.194Z,11.13
2023-05-22T10:29:21.327Z,11.82
2023-05-22T10:32:00.478Z,11.35
2023-05-22T10:34:52.813Z,10.70
2023-05-22T10:37:42.437Z,10.45
2023-05-22T10:40:14.230Z,11.40
2023-05-22T10:42:45.192Z,14.80
2023-05-22T10:45:15.648Z,11.95
2023-05-22T10:47:44.565Z,12.18
2023-05-22T10:50:14.546Z,16.27
2023-05-22T10:52:45.749Z,12.45
2023-05-22T10:55:14.965Z,13.00
2023-05-22T10:57:44.976Z,12.30
2023-05-22T11:00:20.668Z,13.55
2023-05-22T11:03:17.164Z,13.73
2023-05-22T11:05:54.493Z,11.75
2023-05-22T11:08:39.856Z,11.68
2023-05-22T11:11:15.697Z,11.35
2023-05-22T11:13:53.377Z,11.15
2023-05-22T11:16:23.609Z,12.77
2023-05-22T11:19:21.125Z,12.70
2023-05-22T11:21:51.450Z,11.75
2023-05-22T11:24:23.905Z,11.52
2023-05-22T11:27:08.443Z,11.45
2023-05-22T11:29:45.726Z,11.90
2023-05-22T11:32:20.810Z,14.38
2023-05-22T11:34:52.407Z,11.55
2023-05-22T11:37:22.587Z,11.27
2023-05-22T11:39:59.681Z,11.55
2023-05-22T11:42:28.168Z,12.27
2023-05-22T11:44:59.106Z,11.85
2023-05-22T11:47:29.094Z,15.05
2023-05-22T11:49:59.887Z,12.75
2023-05-22T11:52:35.173Z,12.60
2023-05-22T11:55:06.416Z,12.55
2023-05-22T11:57:35.937Z,12.30
2023-05-22T12:00:09.029Z,16.70
2023-05-22T12:02:41.613Z,13.55
2023-05-22T12:05:12.542Z,13.25
2023-05-22T12:07:43.907Z,12.38
2023-05-22T12:10:13.077Z,11.77
2023-05-22T12:12:43.212Z,13.20
2023-05-22T12:15:15.208Z,12.25
2023-05-22T12:17:45.816Z,14.90
2023-05-22T12:20:15.645Z,12.63
2023-05-22T12:22:46.157Z,11.95
2023-05-22T12:25:17.819Z,11.60
2023-05-22T12:27:46.660Z,13.80
2023-05-22T12:30:20.445Z,17.35
2023-05-22T12:32:50.083Z,14.70
2023-05-22T12:35:19.926Z,11.05
2023-05-22T12:37:52.356Z,14.93
2023-05-22T12:40:20.939Z,13.23
2023-05-22T12:42:50.882Z,12.63
2023-05-22T12:45:23.326Z,13.68
2023-05-22T12:47:51.908Z,14.85
2023-05-22T12:50:20.400Z,14.65
2023-05-22T12:52:50.195Z,15.50
2023-05-22T12:55:18.721Z,13.43
2023-05-22T12:57:48.223Z,14.20
2023-05-22T13:00:18.728Z,15.10
2023-05-22T13:02:50.671Z,16.42
2023-05-22T13:05:21.153Z,14.38
2023-05-22T13:07:49.780Z,14.82
2023-05-22T13:10:27.635Z,13.27
2023-05-22T13:12:57.299Z,15.77
2023-05-22T13:15:29.572Z,14.10
2023-05-22T13:18:02.617Z,14.43
2023-05-22T13:20:32.511Z,17.83
2023-05-22T13:23:02.068Z,13.88
2023-05-22T13:25:30.652Z,16.88
2023-05-22T13:28:02.074Z,17.10
2023-05-22T13:30:31.972Z,17.55
2023-05-22T13:33:03.044Z,17.67
2023-05-22T13:35:32.854Z,18.88
2023-05-22T13:38:01.715Z,18.10
2023-05-22T13:40:32.500Z,20.48
2023-05-22T13:43:02.158Z,19.23
2023-05-22T13:45:31.753Z,19.55
2023-05-22T13:48:02.950Z,21.88
2023-05-22T13:50:33.773Z,18.17
2023-05-22T13:53:04.735Z,18.88
2023-05-22T13:55:32.985Z,19.95
2023-05-22T13:58:02.475Z,17.52
2023-05-22T14:00:32.385Z,20.50
2023-05-22T14:03:02.033Z,19.20
2023-05-22T14:05:32.008Z,18.85
2023-05-22T14:08:00.541Z,17.90
2023-05-22T14:10:28.768Z,21.88
2023-05-22T14:12:58.225Z,19.50
2023-05-22T14:15:26.627Z,18.55
2023-05-22T14:17:55.131Z,21.08
2023-05-22T14:20:24.935Z,19.13
2023-05-22T14:22:57.788Z,20.33
2023-05-22T14:25:26.874Z,19.58
2023-05-22T14:27:55.564Z,20.85
2023-05-22T14:30:25.223Z,9.57
2023-05-22T14:32:54.991Z,9.93
2023-05-22T14:35:25.940Z,6.63
2023-05-22T14:37:55.740Z,7.70
2023-05-22T14:40:24.470Z,6.55
2023-05-22T14:42:54.284Z,7.15
2023-05-22T14:45:24.484Z,5.68
2023-05-22T14:47:53.280Z,5.07
2023-05-22T14:50:23.582Z,5.63
2023-05-22T14:52:54.589Z,4.22
2023-05-22T14:55:27.748Z,5.57
2023-05-22T14:57:58.876Z,5.50
2023-05-22T15:00:27.428Z,6.05
2023-05-22T15:02:58.417Z,5.28
2023-05-22T15:05:27.415Z,4.38
2023-05-22T15:07:58.725Z,6.13
2023-05-22T15:10:28.763Z,4.25
2023-05-22T15:12:57.430Z,4.00
2023-05-22T15:15:26.374Z,4.22
2023-05-22T15:17:56.920Z,4.40
2023-05-22T15:20:26.620Z,5.80
2023-05-22T15:22:58.825Z,3.90
2023-05-22T15:25:27.503Z,5.72
2023-05-22T15:27:57.202Z,5.22
2023-05-22T15:30:27.569Z,6.72
2023-05-22T15:32:55.904Z,4.43
2023-05-22T15:35:24.623Z,5.50
2023-05-22T15:37:54.313Z,5.95
2023-05-22T15:40:25.459Z,7.25
2023-05-22T15:42:54.172Z,9.05
2023-05-22T15:45:23.373Z,13.70
2023-05-22T15:47:51.689Z,10.32
2023-05-22T15:50:21.175Z,20.60
2023-05-22T15:52:50.934Z,15.55
2023-05-22T15:55:22.237Z,17.77
2023-05-22T15:57:53.029Z,19.60
2023-05-22T16:00:22.286Z,23.40
2023-05-22T16:02:52.094Z,20.92
2023-05-22T16:05:20.646Z,32.55
2023-05-22T16:07:50.698Z,26.25
2023-05-22T16:10:21.778Z,14.93
2023-05-22T16:12:53.193Z,18.77
2023-05-22T16:15:23.144Z,26.27
2023-05-22T16:17:52.025Z,31.35
2023-05-22T16:20:22.752Z,26.38
2023-05-22T16:22:53.346Z,30.52
2023-05-22T16:25:21.788Z,24.60
2023-05-22T16:27:52.786Z,25.08
2023-05-22T16:30:23.929Z,23.50
2023-05-22T16:32:53.445Z,23.48
2023-05-22T16:35:22.174Z,23.20
2023-05-22T16:37:52.590Z,20.15
2023-05-22T16:40:21.739Z,24.63
2023-05-22T16:42:52.856Z,22.92
2023-05-22T16:45:23.857Z,26.33
2023-05-22T16:47:55.025Z,24.73
2023-05-22T16:50:25.714Z,21.02
2023-05-22T16:52:55.511Z,25.02
2023-05-22T16:55:23.985Z,24.85
2023-05-22T16:57:52.261Z,26.00
2023-05-22T17:00:22.777Z,21.67
2023-05-22T17:02:54.228Z,22.13
2023-05-22T17:05:24.233Z,27.23
2023-05-22T17:07:52.438Z,34.38
2023-05-22T17:12:49.321Z,25.33
2023-05-22T17:15:20.382Z,23.77
2023-05-22T17:17:48.686Z,24.98
2023-05-22T17:22:46.983Z,31.70
2023-05-22T17:25:17.171Z,32.47
2023-05-22T17:27:47.899Z,40.72
2023-05-22T17:30:16.460Z,50.70
2023-05-22T17:32:46.592Z,49.13
2023-05-22T17:35:14.845Z,38.20
2023-05-22T17:37:47.172Z,30.23
2023-05-22T17:40:15.639Z,28.52
2023-05-22T17:42:44.332Z,38.10
2023-05-22T17:45:13.258Z,31.55
2023-05-22T17:47:41.995Z,27.60
2023-05-22T17:50:12.902Z,28.65
2023-05-22T17:52:43.216Z,26.40
2023-05-22T17:55:15.202Z,36.40
2023-05-22T17:57:44.732Z,37.00
2023-05-22T18:02:47.826Z,32.17
2023-05-22T18:05:20.473Z,37.95
2023-05-22T18:07:49.833Z,33.25
2023-05-22T18:10:20.608Z,45.65
2023-05-22T18:12:48.922Z,53.45
2023-05-22T18:15:18.450Z,52.00
2023-05-22T18:17:48.327Z,36.75
2023-05-22T18:20:19.060Z,56.28
2023-05-22T18:22:50.063Z,50.15
2023-05-22T18:25:21.062Z,45.83
2023-05-22T18:27:49.363Z,43.80
2023-05-22T18:30:18.954Z,47.03
2023-05-22T18:32:48.447Z,45.83
2023-05-22T18:35:17.256Z,43.58
2023-05-22T18:37:46.187Z,49.80
2023-05-22T18:40:15.262Z,37.72
2023-05-22T18:42:47.227Z,22.50
2023-05-22T18:45:15.774Z,17.98
2023-05-22T18:47:45.654Z,20.83
2023-05-22T18:50:15.265Z,26.00
2023-05-22T18:52:44.755Z,24.38
2023-05-22T18:55:15.384Z,22.17
2023-05-22T18:57:45.327Z,21.85
2023-05-22T19:00:15.460Z,22.60
2023-05-22T19:02:45.254Z,22.00
2023-05-22T19:05:15.297Z,28.83
2023-05-22T19:07:44.744Z,30.08
2023-05-22T19:12:45.839Z,28.58
2023-05-22T19:15:15.390Z,40.45
2023-05-22T19:17:44.773Z,36.08
2023-05-22T19:20:15.783Z,43.65
2023-05-22T19:22:44.399Z,43.45
2023-05-22T19:25:15.002Z,37.53
2023-05-22T19:27:43.691Z,39.17
2023-05-22T19:30:16.349Z,42.40
2023-05-22T19:32:47.908Z,43.85
2023-05-22T19:35:17.412Z,38.22
2023-05-22T19:37:46.935Z,46.00
2023-05-22T19:42:44.986Z,37.45
2023-05-22T19:45:14.753Z,45.33
2023-05-22T19:47:44.248Z,42.85
2023-05-22T19:50:12.914Z,39.92
2023-05-22T19:52:42.376Z,40.88
2023-05-22T19:57:44.261Z,41.83
2023-05-22T20:00:17.141Z,61.63
2023-05-22T20:02:45.820Z,53.33
2023-05-22T20:05:16.595Z,47.47
2023-05-22T20:07:47.075Z,56.05
2023-05-22T20:10:17.302Z,45.45
2023-05-22T20:12:46.147Z,65.65
2023-05-22T20:15:18.009Z,53.08
2023-05-22T20:17:47.898Z,55.83
2023-05-22T20:20:16.665Z,69.53
2023-05-22T20:22:45.283Z,67.35
2023-05-22T20:25:14.135Z,78.65
2023-05-22T20:27:43.913Z,60.25
2023-05-22T20:30:17.152Z,64.22
2023-05-22T20:32:47.886Z,71.85
2023-05-22T20:35:18.454Z,55.08
2023-05-22T20:37:49.293Z,73.10
2023-05-22T20:40:18.829Z,64.10
2023-05-22T20:42:48.783Z,70.18
2023-05-22T20:45:18.339Z,74.88
2023-05-22T20:47:47.822Z,73.70
2023-05-22T20:52:47.096Z,81.88
2023-05-22T20:55:16.463Z,75.90
2023-05-22T20:57:46.100Z,76.55
2023-05-22T21:00:16.515Z,80.00
2023-05-22T21:02:49.148Z,75.68
2023-05-22T21:05:17.454Z,81.68
2023-05-22T21:07:47.298Z,95.57
2023-05-22T21:10:17.003Z,83.20
2023-05-22T21:12:46.617Z,88.88
2023-05-22T21:15:16.477Z,83.75
2023-05-22T21:17:46.010Z,86.32
2023-05-22T21:20:14.604Z,95.32
2023-05-22T21:22:44.397Z,77.10
2023-05-22T21:25:13.857Z,113.75
2023-05-22T21:30:15.982Z,85.95
2023-05-22T21:32:47.203Z,92.57
2023-05-22T21:35:16.643Z,93.97
2023-05-22T21:37:46.368Z,101.38
2023-05-22T21:40:17.424Z,123.38
2023-05-22T21:42:47.601Z,103.82
2023-05-22T21:45:15.996Z,125.35
2023-05-22T21:50:16.191Z,114.40
2023-05-22T21:52:45.591Z,116.78
2023-05-22T21:55:15.031Z,118.78
2023-05-22T21:57:45.579Z,131.45
2023-05-22T22:00:15.549Z,138.88
2023-05-22T22:02:45.448Z,141.95
2023-05-22T22:05:18.554Z,153.68
2023-05-22T22:07:48.252Z,116.28
2023-05-22T22:10:18.194Z,142.25
2023-05-22T22:12:49.247Z,132.73
2023-05-22T22:15:17.542Z,141.77
2023-05-22T22:17:47.543Z,141.18
2023-05-22T22:20:27.421Z,182.80
2023-05-22T22:23:00.438Z,143.20
2023-05-22T22:25:28.861Z,143.38
2023-05-22T22:27:58.242Z,124.78
2023-05-22T22:30:27.718Z,123.07
2023-05-22T22:32:57.102Z,122.85
2023-05-22T22:35:26.668Z,128.07
2023-05-22T22:37:56.380Z,131.95
2023-05-22T22:40:27.163Z,106.43
2023-05-22T22:42:56.717Z,116.60
2023-05-22T22:45:27.607Z,114.55
2023-05-22T22:47:57.258Z,114.97
2023-05-22T22:50:29.471Z,127.32
2023-05-22T22:52:59.224Z,115.53
2023-05-22T22:55:28.768Z,119.78
2023-05-22T23:00:28.489Z,102.60
2023-05-22T23:02:57.381Z,122.35
2023-05-22T23:05:28.153Z,121.28
2023-05-22T23:07:58.335Z,131.82
2023-05-22T23:10:27.772Z,118.10
2023-05-22T23:12:59.234Z,79.57
2023-05-22T23:15:27.541Z,78.35
2023-05-22T23:17:57.466Z,85.78
2023-05-22T23:20:27.002Z,71.55
2023-05-22T23:22:55.186Z,73.05
2023-05-22T23:25:24.875Z,74.63
2023-05-22T23:27:54.283Z,98.93
2023-05-22T23:30:23.664Z,80.80
2023-05-22T23:32:53.064Z,85.43
2023-05-22T23:35:22.265Z,69.95
2023-05-22T23:37:51.941Z,75.93
2023-05-22T23:40:23.090Z,74.28
2023-05-22T23:42:51.511Z,62.63
2023-05-22T23:47:48.984Z,66.75
2023-05-22T23:52:48.194Z,58.80
2023-05-22T23:55:20.224Z,71.53
2023-05-22T23:57:51.249Z,90.57
